createdAt,value
2017-02-26T00:00:00.016Z,81.8
2017-02-26T00:10:10.968Z,82
2017-02-26T00:20:21.886Z,81.1
2017-02-26T00:30:32.768Z,81.6
2017-02-26T00:40:43.649Z,82.2
2017-02-26T00:50:54.562Z,82.5
2017-02-26T01:01:05.483Z,82.7
2017-02-26T01:11:16.460Z,82.6
2017-02-26T01:21:27.366Z,83
2017-02-26T01:31:38.272Z,83.4
2017-02-26T01:41:49.245Z,84.9
2017-02-26T01:52:00.304Z,85.4
2017-02-26T02:02:11.405Z,86.5
2017-02-26T02:12:22.504Z,86.8
2017-02-26T02:22:33.658Z,86.7
2017-02-26T02:32:44.800Z,87.3
2017-02-26T02:42:55.911Z,87.5
2017-02-26T02:53:06.970Z,86.7
2017-02-26T03:03:18.013Z,87.1
2017-02-26T03:13:29.009Z,86.6
2017-02-26T03:23:40.022Z,87.1
2017-02-26T03:33:50.978Z,86.2
2017-02-26T03:44:01.997Z,86.5
2017-02-26T03:54:12.954Z,86.7
2017-02-26T04:04:24.008Z,86.6
2017-02-26T04:14:35.056Z,86.8
2017-02-26T04:24:46.095Z,86.8
2017-02-26T04:34:57.133Z,86.4
2017-02-26T04:45:08.167Z,86.2
2017-02-26T04:55:19.204Z,86.3
2017-02-26T05:05:30.209Z,86.3
2017-02-26T05:15:41.303Z,87.5
2017-02-26T05:25:52.363Z,86.2
2017-02-26T05:36:03.393Z,86.2
2017-02-26T05:46:14.398Z,85.6
2017-02-26T05:56:25.423Z,85.9
2017-02-26T06:06:36.446Z,87.5
2017-02-26T06:16:47.445Z,88.1
2017-02-26T06:26:58.490Z,89.3
2017-02-26T06:37:09.545Z,89.8
2017-02-26T06:47:20.604Z,88.5
2017-02-26T06:57:31.583Z,87.1
2017-02-26T07:07:42.538Z,88.2
2017-02-26T07:17:53.444Z,87.8
2017-02-26T07:28:04.308Z,87.4
2017-02-26T07:38:15.141Z,86.8
2017-02-26T07:48:26.106Z,87
2017-02-26T07:58:36.895Z,89.2
2017-02-26T08:08:47.641Z,91.2
2017-02-26T08:18:58.372Z,91.8
2017-02-26T08:29:09.054Z,93.5
2017-02-26T08:39:19.707Z,92.8
2017-02-26T08:49:30.313Z,90.5
2017-02-26T08:59:40.876Z,89.9
2017-02-26T09:09:51.383Z,89.8
2017-02-26T09:20:01.962Z,89.1
2017-02-26T09:30:12.398Z,89.7
2017-02-26T09:40:23.000Z,90.6
2017-02-26T09:50:33.396Z,92.2
2017-02-26T10:00:43.910Z,94.1
2017-02-26T10:10:54.469Z,94.8
2017-02-26T10:21:04.922Z,95.8
2017-02-26T10:31:15.251Z,95.8
2017-02-26T10:41:25.624Z,96.5
2017-02-26T10:51:36.079Z,97
2017-02-26T11:01:46.533Z,0
2017-02-26T11:11:56.993Z,0
2017-02-26T11:22:07.580Z,0
2017-02-26T11:32:17.870Z,0
2017-02-26T11:42:28.286Z,0
2017-02-26T11:52:38.740Z,0
2017-02-26T12:02:49.267Z,0
2017-02-26T12:12:59.733Z,0
2017-02-26T12:23:10.140Z,0
2017-02-26T12:33:20.475Z,0
2017-02-26T12:43:30.759Z,0
2017-02-26T12:53:41.125Z,0
2017-02-26T13:03:51.538Z,0
2017-02-26T13:14:01.913Z,0
2017-02-26T13:24:12.278Z,0
2017-02-26T13:34:22.561Z,0
2017-02-26T13:44:32.799Z,0
2017-02-26T13:54:43.151Z,0
2017-02-26T14:04:53.367Z,0
2017-02-26T14:15:03.665Z,0
2017-02-26T14:25:13.963Z,0
2017-02-26T14:35:24.230Z,0
2017-02-26T14:45:34.414Z,0
2017-02-26T14:55:44.600Z,0
2017-02-26T15:05:54.661Z,0
2017-02-26T15:16:04.748Z,0
2017-02-26T15:26:14.920Z,0
2017-02-26T15:36:25.177Z,0
2017-02-26T15:46:35.479Z,0
2017-02-26T15:56:45.692Z,0
2017-02-26T16:06:55.962Z,0
2017-02-26T16:17:06.377Z,0
2017-02-26T16:27:16.929Z,0
2017-02-26T16:37:27.469Z,0
2017-02-26T16:47:38.074Z,0
2017-02-26T16:57:48.739Z,0
2017-02-26T17:07:59.432Z,0
2017-02-26T17:18:10.132Z,0
2017-02-26T17:28:20.761Z,0
2017-02-26T17:38:31.395Z,0
2017-02-26T17:48:42.165Z,0
2017-02-26T17:58:52.692Z,0
2017-02-26T18:09:03.344Z,0
2017-02-26T18:19:14.016Z,0
2017-02-26T18:29:24.708Z,0
2017-02-26T18:39:35.361Z,0
2017-02-26T18:49:46.027Z,0
2017-02-26T18:59:56.684Z,0
2017-02-26T19:10:07.255Z,0
2017-02-26T19:20:17.855Z,0
2017-02-26T19:30:28.397Z,0
2017-02-26T19:40:38.936Z,0
2017-02-26T19:50:49.481Z,0
2017-02-26T20:01:00.006Z,0
2017-02-26T20:11:10.550Z,0
2017-02-26T20:21:21.107Z,0
2017-02-26T20:31:31.646Z,0
2017-02-26T20:41:42.162Z,0
2017-02-26T20:51:52.689Z,0
2017-02-26T21:02:03.147Z,0
2017-02-26T21:12:13.625Z,0
2017-02-26T21:22:24.167Z,0
2017-02-26T21:32:34.713Z,0
2017-02-26T21:42:45.348Z,0
2017-02-26T21:52:55.849Z,0
2017-02-26T22:03:06.321Z,0
2017-02-26T22:13:16.838Z,0
2017-02-26T22:23:27.340Z,0
2017-02-26T22:33:37.962Z,0
2017-02-26T22:43:48.378Z,0
2017-02-26T22:53:58.893Z,0
2017-02-26T23:04:09.419Z,0
2017-02-26T23:14:19.940Z,0
2017-02-26T23:24:30.473Z,0
2017-02-26T23:34:41.013Z,0
2017-02-26T23:44:51.625Z,0
2017-02-26T23:55:02.203Z,0
